Accueil
METAR-TAF:

METAR-TAF

Aéroports :

Base d'aéronautique navale de Lanvéoc-Poulmic

Lanvéoc, France

latitude: 48-17N, longitude: 004-26W, altitude: 87 m

Observation

Le bulletin a été fait il y a 38 minutes, à 08:30 UTC
Vent 8 kt de est
Température 10°C
Humidité 100%
Pression 1019 hPa
Visibilité: 2200 m
Ciel couvert à une hauteur de 200 ft
brume

METAR: LFRL 170830Z AUTO 09008KT 2200 BR OVC002 10/10 Q1019

Heure: 10:08 (09:08 UTC)

Prévision

Le bulletin a été fait il y a 22 heures et 8 minutes, à 11:00 UTC
Prévision valable du 16 à 12 UTC au 17 à 12 UTC
Vent 5 kt de est/sud-est
Visibilité 10 km ou plus
Ciel couvert à une hauteur de 1000 ft
Temporairement
du 16 à 12 UTC au 17 à 10 UTC
Visibilité: 3000 m
Nuages fragmentés à une hauteur de 400 ft
brume

TAF: LFRL 161100Z 1612/1712 12005KT 9999 OVC010 TEMPO 1612/1710 3000 BR BKN004

Observations et prévisions météorologiques de plus de 4000 aéroports (messages METAR et TAF).

Les stations disponibles sont représentées par des disques jaunes et rouges sur la carte.

Passer la souris dessus pour voir le nom de la station.

Cliquer dessus pour voir les observations et prévisions météorologiques.

Pour changer de carte: cliquez sur les boutons verts avec une croix noire pour zoomer, sur le bouton vert avec un tiret pour effectuer un zoom arrière, ou sur les flèches vertes pour les cartes adjacentes.


METAR-TAF: